Time;durP1;ratioP1;P1;durP2;ratioP2;P2;SDS_P1;SDS_P2;PMS_P1;PMS_P2;Temp;Humidity;BMP_temperature;BMP_pressure;BME280_temperature;BME280_humidity;BME280_pressure;Samples;Min_cycle;Max_cycle;Signal;HPM_P1;HPM_P2
2023/09/15 00:01:47;;;;;;;;;;;14.60;78.00;;;;;;5025926;28;19933;-74
2023/09/15 00:04:21;;;;;;;;;;;14.60;77.90;;;;;;5026342;28;19965;-74
2023/09/15 00:06:55;;;;;;;;;;;14.50;78.10;;;;;;5026111;28;19970;-74
2023/09/15 00:09:28;;;;;;;;;;;14.50;78.20;;;;;;5025801;28;20448;-73
2023/09/15 00:12:02;;;;;;;;;;;14.50;78.20;;;;;;5026698;28;19982;-73
2023/09/15 00:14:35;;;;;;;;;;;14.40;78.30;;;;;;5024291;28;19935;-74
2023/09/15 00:17:09;;;;;;;;;;;14.40;78.10;;;;;;5022948;28;19956;-74
2023/09/15 00:19:44;;;;;;;;;;;14.40;78.30;;;;;;5026028;28;19925;-74
2023/09/15 00:22:17;;;;;;;;;;;14.40;78.30;;;;;;5025338;28;19933;-73
2023/09/15 00:24:50;;;;;;;;;;;14.40;78.40;;;;;;5025235;28;19936;-73
2023/09/15 00:27:23;;;;;;;;;;;14.40;78.30;;;;;;5024676;28;19936;-75
2023/09/15 00:29:56;;;;;;;;;;;14.40;78.20;;;;;;5027447;28;20334;-74
2023/09/15 00:32:29;;;;;;;;;;;14.30;78.40;;;;;;5024573;28;20012;-74
2023/09/15 00:35:04;;;;;;;;;;;14.30;78.30;;;;;;5013937;28;19936;-75
2023/09/15 00:37:31;;;;;;;;;;;14.30;78.50;;;;;;5027568;28;19956;-75
2023/09/15 00:40:08;;;;;;;;;;;14.30;78.50;;;;;;5027260;28;19929;-74
2023/09/15 00:42:42;;;;;;;;;;;14.30;78.40;;;;;;5025433;28;20384;-72
2023/09/15 00:45:19;;;;;;;;;;;14.20;78.50;;;;;;5027585;28;19925;-75
2023/09/15 00:47:53;;;;;;;;;;;14.20;78.70;;;;;;5026130;28;19933;-74
2023/09/15 00:50:31;;;;;;;;;;;14.30;78.40;;;;;;5027544;28;19937;-74
2023/09/15 00:53:05;;;;;;;;;;;14.30;78.30;;;;;;5026449;28;19957;-75
2023/09/15 00:55:39;;;;;;;;;;;14.40;78.10;;;;;;5027371;28;19972;-75
2023/09/15 00:58:13;;;;;;;;;;;14.40;77.80;;;;;;5027008;28;19933;-75
2023/09/15 01:00:46;;;;;;;;;;;14.40;78.00;;;;;;5012816;28;19945;-75
2023/09/15 01:03:20;;;;;;;;;;;14.30;77.90;;;;;;5024272;28;19929;-72
2023/09/15 01:05:55;;;;;;;;;;;14.30;78.00;;;;;;5026008;28;20335;-73
2023/09/15 01:08:30;;;;;;;;;;;14.30;78.10;;;;;;5025408;28;20003;-74
2023/09/15 01:11:04;;;;;;;;;;;14.30;78.10;;;;;;5028434;28;19926;-73
2023/09/15 01:13:38;;;;;;;;;;;14.30;78.10;;;;;;5024323;28;19979;-72
2023/09/15 01:16:15;;;;;;;;;;;14.30;78.20;;;;;;5022299;28;19995;-72
2023/09/15 01:18:52;;;;;;;;;;;14.20;78.20;;;;;;5019220;28;19936;-72
2023/09/15 01:21:45;;;;;;;;;;;14.20;78.40;;;;;;5024378;28;19951;-74
2023/09/15 01:24:29;;;;;;;;;;;14.10;78.50;;;;;;5021638;28;19929;-73
2023/09/15 01:27:13;;;;;;;;;;;14.10;78.60;;;;;;5025115;28;19936;-73
2023/09/15 01:29:48;;;;;;;;;;;14.10;78.60;;;;;;5022364;28;19936;-73
2023/09/15 01:32:23;;;;;;;;;;;14.10;78.60;;;;;;5026651;28;19929;-74
2023/09/15 01:34:56;;;;;;;;;;;14.10;78.60;;;;;;5008340;28;21882;-71
2023/09/15 01:37:29;;;;;;;;;;;14.10;78.70;;;;;;5024759;28;20304;-72
2023/09/15 01:40:05;;;;;;;;;;;14.10;78.80;;;;;;5024130;28;20378;-74
2023/09/15 01:42:40;;;;;;;;;;;14.00;78.90;;;;;;5021754;28;19933;-73
2023/09/15 01:45:14;;;;;;;;;;;14.00;78.90;;;;;;5026148;28;20299;-73
2023/09/15 01:47:49;;;;;;;;;;;14.00;79.00;;;;;;5026329;28;19933;-74
2023/09/15 01:50:22;;;;;;;;;;;14.00;78.90;;;;;;5026015;28;19965;-74
2023/09/15 01:52:56;;;;;;;;;;;14.00;79.00;;;;;;5023723;28;19929;-73
2023/09/15 01:55:31;;;;;;;;;;;14.00;78.80;;;;;;5027189;28;19937;-74
2023/09/15 01:58:04;;;;;;;;;;;14.00;78.90;;;;;;5015860;28;20012;-77
2023/09/15 02:00:38;;;;;;;;;;;13.90;78.90;;;;;;5035143;28;19925;-73
2023/09/15 02:03:06;;;;;;;;;;;14.00;78.80;;;;;;5028525;28;19925;-70
2023/09/15 02:05:40;;;;;;;;;;;14.10;78.60;;;;;;5025454;28;19935;-73
2023/09/15 02:08:13;;;;;;;;;;;14.10;78.60;;;;;;5025801;28;19925;-72
2023/09/15 02:10:46;;;;;;;;;;;14.10;78.60;;;;;;5025476;28;19925;-72
2023/09/15 02:13:19;;;;;;;;;;;14.00;78.30;;;;;;5021088;28;20089;-72
2023/09/15 02:15:54;;;;;;;;;;;13.90;78.60;;;;;;5023858;28;21742;-73
2023/09/15 02:18:27;;;;;;;;;;;13.80;78.60;;;;;;5022445;28;19929;-77
2023/09/15 02:21:00;;;;;;;;;;;13.80;78.50;;;;;;5024851;28;19936;-72
2023/09/15 02:23:40;;;;;;;;;;;13.70;78.70;;;;;;5024358;28;19933;-76
2023/09/15 02:26:14;;;;;;;;;;;13.60;78.70;;;;;;5023531;28;19969;-73
2023/09/15 02:28:47;;;;;;;;;;;13.60;78.90;;;;;;5022814;28;19933;-76
2023/09/15 02:31:21;;;;;;;;;;;13.60;79.00;;;;;;5023104;28;19925;-76
2023/09/15 02:33:57;;;;;;;;;;;13.60;78.80;;;;;;5022369;28;20010;-75
2023/09/15 02:36:30;;;;;;;;;;;13.60;79.20;;;;;;5025086;28;19933;-74
2023/09/15 02:39:03;;;;;;;;;;;13.60;79.30;;;;;;5022211;28;19929;-74
2023/09/15 02:41:37;;;;;;;;;;;13.60;79.30;;;;;;5022321;28;19925;-74
2023/09/15 02:44:11;;;;;;;;;;;13.60;79.30;;;;;;5023339;28;19925;-74
2023/09/15 02:46:45;;;;;;;;;;;13.50;79.30;;;;;;5021937;28;19929;-73
2023/09/15 02:49:19;;;;;;;;;;;13.50;79.40;;;;;;5011046;28;19929;-76
2023/09/15 02:51:52;;;;;;;;;;;13.50;79.40;;;;;;5023943;28;20024;-76
2023/09/15 02:54:25;;;;;;;;;;;13.60;79.20;;;;;;5027632;28;20065;-74
2023/09/15 02:56:58;;;;;;;;;;;13.50;79.30;;;;;;5011221;28;20300;-75
2023/09/15 02:59:37;;;;;;;;;;;13.50;79.20;;;;;;5022409;28;20371;-75
2023/09/15 03:02:14;;;;;;;;;;;13.40;79.30;;;;;;5021807;28;19928;-75
2023/09/15 03:04:48;;;;;;;;;;;13.40;79.20;;;;;;5022400;28;20303;-74
2023/09/15 03:07:14;;;;;;;;;;;13.40;79.40;;;;;;5021602;28;19929;-75
2023/09/15 03:09:48;;;;;;;;;;;13.40;79.20;;;;;;5024261;28;19944;-75
2023/09/15 03:12:21;;;;;;;;;;;13.30;79.40;;;;;;5020522;28;19938;-75
2023/09/15 03:14:55;;;;;;;;;;;13.30;79.50;;;;;;5020969;28;19940;-75
2023/09/15 03:17:29;;;;;;;;;;;13.30;79.50;;;;;;5022672;28;19929;-73
2023/09/15 03:20:09;;;;;;;;;;;13.30;79.50;;;;;;5023881;28;19925;-76
2023/09/15 03:22:42;;;;;;;;;;;13.30;79.60;;;;;;5021085;28;19929;-72
2023/09/15 03:25:16;;;;;;;;;;;13.30;79.40;;;;;;5023212;28;19937;-71
2023/09/15 03:27:49;;;;;;;;;;;13.20;79.60;;;;;;5009113;28;20023;-72
2023/09/15 03:30:22;;;;;;;;;;;13.30;79.60;;;;;;5011703;28;19932;-72
2023/09/15 03:32:56;;;;;;;;;;;13.30;79.40;;;;;;5009470;28;19940;-72
2023/09/15 03:35:30;;;;;;;;;;;13.30;79.50;;;;;;5021922;28;20905;-73
2023/09/15 03:37:57;;;;;;;;;;;13.30;79.40;;;;;;5021473;28;20385;-73
2023/09/15 03:40:30;;;;;;;;;;;13.30;79.60;;;;;;5003408;28;19947;-73
2023/09/15 03:43:05;;;;;;;;;;;13.30;79.60;;;;;;5022318;28;20015;-70
2023/09/15 03:45:38;;;;;;;;;;;13.20;79.50;;;;;;5007623;28;20446;-72
2023/09/15 03:48:12;;;;;;;;;;;13.20;79.40;;;;;;5020018;28;19925;-72
2023/09/15 03:50:48;;;;;;;;;;;13.20;79.50;;;;;;5027469;28;19948;-73
2023/09/15 03:53:14;;;;;;;;;;;13.20;79.50;;;;;;5022143;28;20376;-72
2023/09/15 03:55:48;;;;;;;;;;;13.20;79.60;;;;;;5020681;28;19976;-73
2023/09/15 03:58:21;;;;;;;;;;;13.20;79.50;;;;;;5020693;28;19932;-71
2023/09/15 04:00:47;;;;;;;;;;;13.20;79.60;;;;;;5010480;28;19925;-72
2023/09/15 04:03:22;;;;;;;;;;;13.10;79.60;;;;;;5026128;28;20003;-72
2023/09/15 04:05:56;;;;;;;;;;;13.10;79.30;;;;;;5019322;28;20456;-72
2023/09/15 04:08:29;;;;;;;;;;;13.10;79.50;;;;;;5021318;28;20403;-72
2023/09/15 04:11:02;;;;;;;;;;;13.10;79.50;;;;;;5022460;28;19967;-72
2023/09/15 04:13:36;;;;;;;;;;;13.00;79.40;;;;;;5022268;28;20024;-73
2023/09/15 04:16:09;;;;;;;;;;;13.00;79.40;;;;;;5022491;28;19925;-70
2023/09/15 04:18:43;;;;;;;;;;;12.90;79.50;;;;;;5026070;28;19963;-72
2023/09/15 04:21:17;;;;;;;;;;;13.00;79.40;;;;;;5021964;28;20016;-72
2023/09/15 04:23:50;;;;;;;;;;;13.00;79.30;;;;;;5025559;28;19932;-72
2023/09/15 04:26:23;;;;;;;;;;;12.90;79.40;;;;;;5020677;28;19926;-73
2023/09/15 04:28:58;;;;;;;;;;;12.90;79.50;;;;;;5025706;28;19925;-73
2023/09/15 04:31:31;;;;;;;;;;;12.80;79.50;;;;;;5010253;28;20394;-63
2023/09/15 04:34:06;;;;;;;;;;;12.80;79.70;;;;;;5031350;28;20295;-72
2023/09/15 04:36:40;;;;;;;;;;;12.70;79.70;;;;;;5019550;28;19978;-76
2023/09/15 04:39:13;;;;;;;;;;;12.70;79.70;;;;;;5033592;28;19936;-73
2023/09/15 04:41:47;;;;;;;;;;;12.70;79.80;;;;;;5024831;28;20404;-74
2023/09/15 04:44:21;;;;;;;;;;;12.70;79.90;;;;;;5026979;28;20069;-73
2023/09/15 04:46:55;;;;;;;;;;;12.70;79.70;;;;;;5025158;28;19937;-71
2023/09/15 04:49:30;;;;;;;;;;;12.70;79.70;;;;;;5030430;28;19935;-74
2023/09/15 04:52:03;;;;;;;;;;;12.80;79.50;;;;;;5025100;28;19925;-73
2023/09/15 04:54:37;;;;;;;;;;;12.70;79.80;;;;;;5007778;28;19972;-73
2023/09/15 04:57:11;;;;;;;;;;;12.80;79.70;;;;;;5024466;28;19965;-74
2023/09/15 04:59:46;;;;;;;;;;;12.80;79.40;;;;;;5026577;28;19925;-73
2023/09/15 05:02:19;;;;;;;;;;;12.80;79.40;;;;;;5011353;28;19929;-74
2023/09/15 05:04:55;;;;;;;;;;;12.70;79.70;;;;;;5022438;28;20485;-73
2023/09/15 05:07:29;;;;;;;;;;;12.70;79.60;;;;;;5024938;28;20373;-73
2023/09/15 05:10:02;;;;;;;;;;;12.60;79.80;;;;;;5024495;28;20364;-72
2023/09/15 05:12:36;;;;;;;;;;;12.70;79.50;;;;;;5025659;28;19932;-74
2023/09/15 05:15:10;;;;;;;;;;;12.70;79.50;;;;;;5023632;28;20434;-74
2023/09/15 05:17:38;;;;;;;;;;;12.70;79.50;;;;;;5027247;28;19956;-73
2023/09/15 05:20:13;;;;;;;;;;;12.60;79.50;;;;;;5011750;28;19972;-72
2023/09/15 05:22:47;;;;;;;;;;;12.60;79.60;;;;;;5024422;28;19925;-73
2023/09/15 05:25:20;;;;;;;;;;;12.70;79.60;;;;;;5013687;28;19929;-73
2023/09/15 05:27:55;;;;;;;;;;;12.70;79.70;;;;;;5010555;28;20016;-74
2023/09/15 05:30:28;;;;;;;;;;;12.70;79.70;;;;;;5024017;28;19935;-73
2023/09/15 05:33:02;;;;;;;;;;;12.70;79.80;;;;;;5027523;28;19929;-73
2023/09/15 05:35:37;;;;;;;;;;;12.70;79.90;;;;;;5020312;28;19929;-74
2023/09/15 05:38:10;;;;;;;;;;;12.60;80.20;;;;;;5024526;28;19925;-72
2023/09/15 05:40:43;;;;;;;;;;;12.70;80.10;;;;;;5024603;28;19974;-73
2023/09/15 05:43:17;;;;;;;;;;;12.70;80.10;;;;;;5021136;28;19929;-75
2023/09/15 05:45:51;;;;;;;;;;;12.80;80.30;;;;;;5025412;28;19936;-74
2023/09/15 05:48:26;;;;;;;;;;;12.80;79.90;;;;;;5022307;28;19940;-74
2023/09/15 05:51:03;;;;;;;;;;;12.90;80.00;;;;;;5025526;28;19976;-74
2023/09/15 05:53:36;;;;;;;;;;;12.90;80.00;;;;;;5024501;28;19926;-73
2023/09/15 05:56:09;;;;;;;;;;;12.80;80.00;;;;;;5025494;28;20016;-74
2023/09/15 05:58:42;;;;;;;;;;;12.90;80.00;;;;;;5024425;28;19929;-74
2023/09/15 06:01:15;;;;;;;;;;;12.90;79.90;;;;;;5022977;28;19987;-74
2023/09/15 06:03:42;;;;;;;;;;;12.90;80.10;;;;;;5024915;28;19925;-73
2023/09/15 06:06:17;;;;;;;;;;;13.00;80.30;;;;;;5023445;28;19956;-75
2023/09/15 06:08:43;;;;;;;;;;;13.00;80.10;;;;;;5025224;28;19940;-73
2023/09/15 06:11:17;;;;;;;;;;;13.10;80.30;;;;;;5022410;28;19955;-75
2023/09/15 06:13:50;;;;;;;;;;;13.10;80.30;;;;;;5022140;28;20028;-73
2023/09/15 06:16:23;;;;;;;;;;;13.10;80.30;;;;;;5022785;28;20037;-73
2023/09/15 06:18:56;;;;;;;;;;;13.10;80.60;;;;;;5023348;28;19929;-73
2023/09/15 06:21:30;;;;;;;;;;;13.10;80.50;;;;;;5023768;28;19937;-74
2023/09/15 06:24:04;;;;;;;;;;;13.10;80.50;;;;;;5024213;28;20015;-73
2023/09/15 06:26:38;;;;;;;;;;;13.20;80.60;;;;;;5023426;28;20403;-75
2023/09/15 06:29:12;;;;;;;;;;;13.20;80.60;;;;;;5023129;28;19994;-75
2023/09/15 06:31:45;;;;;;;;;;;13.30;80.80;;;;;;5022605;28;20012;-73
2023/09/15 06:34:18;;;;;;;;;;;13.40;80.20;;;;;;5022938;28;19936;-74
2023/09/15 06:36:52;;;;;;;;;;;13.40;80.80;;;;;;5024225;28;19929;-73
2023/09/15 06:39:26;;;;;;;;;;;13.40;81.10;;;;;;5022990;28;20381;-74
2023/09/15 06:42:00;;;;;;;;;;;13.30;82.20;;;;;;5022576;28;20398;-74
2023/09/15 06:44:34;;;;;;;;;;;13.30;82.40;;;;;;5022147;28;20532;-73
2023/09/15 06:47:07;;;;;;;;;;;13.30;82.10;;;;;;5021919;28;20003;-72
2023/09/15 06:49:40;;;;;;;;;;;13.40;81.80;;;;;;5023632;28;19925;-73
2023/09/15 06:52:14;;;;;;;;;;;13.60;81.80;;;;;;5022470;28;19962;-65
2023/09/15 06:54:48;;;;;;;;;;;13.60;81.90;;;;;;5023316;28;19964;-66
2023/09/15 06:57:21;;;;;;;;;;;13.70;81.50;;;;;;5022517;28;19929;-65
2023/09/15 06:59:54;;;;;;;;;;;13.70;81.20;;;;;;5023218;28;19925;-65
2023/09/15 07:02:27;;;;;;;;;;;13.70;81.60;;;;;;5022677;28;20015;-65
2023/09/15 07:05:00;;;;;;;;;;;13.90;81.60;;;;;;5020018;28;20019;-65
2023/09/15 07:07:34;;;;;;;;;;;13.90;81.60;;;;;;5023210;28;19930;-65
2023/09/15 07:10:08;;;;;;;;;;;13.90;81.40;;;;;;5022704;28;19930;-66
2023/09/15 07:12:42;;;;;;;;;;;13.80;82.10;;;;;;5022415;28;19925;-69
2023/09/15 07:15:15;;;;;;;;;;;13.80;82.30;;;;;;5029204;28;19939;-65
2023/09/15 07:17:48;;;;;;;;;;;13.90;82.70;;;;;;5027724;28;19932;-66
2023/09/15 07:20:21;;;;;;;;;;;13.90;82.70;;;;;;5022501;28;19944;-65
2023/09/15 07:22:56;;;;;;;;;;;14.10;82.30;;;;;;5023518;28;19925;-65
2023/09/15 07:25:30;;;;;;;;;;;14.10;82.80;;;;;;5024271;28;20441;-66
2023/09/15 07:28:03;;;;;;;;;;;14.20;82.70;;;;;;5023401;28;19933;-66
2023/09/15 07:30:30;;;;;;;;;;;14.40;83.00;;;;;;5019256;28;19926;-66
2023/09/15 07:33:03;;;;;;;;;;;14.60;82.00;;;;;;5022669;28;20366;-65
2023/09/15 07:35:36;;;;;;;;;;;14.70;82.30;;;;;;5022569;28;20287;-65
2023/09/15 07:38:10;;;;;;;;;;;14.60;83.10;;;;;;5021436;28;19932;-66
2023/09/15 07:40:44;;;;;;;;;;;14.90;82.80;;;;;;5022697;28;20003;-65
2023/09/15 07:43:17;;;;;;;;;;;15.20;82.80;;;;;;5021948;28;19940;-66
2023/09/15 07:45:51;;;;;;;;;;;15.40;81.70;;;;;;5022501;28;20364;-66
2023/09/15 07:48:24;;;;;;;;;;;15.50;82.10;;;;;;5022467;28;19933;-66
2023/09/15 07:50:51;;;;;;;;;;;15.60;82.20;;;;;;5023809;28;19975;-64
2023/09/15 07:53:25;;;;;;;;;;;15.60;82.50;;;;;;5025371;28;19930;-66
2023/09/15 07:55:59;;;;;;;;;;;15.70;82.60;;;;;;5025011;28;19960;-65
2023/09/15 07:58:32;;;;;;;;;;;15.80;82.70;;;;;;5026785;28;20012;-65
2023/09/15 08:01:06;;;;;;;;;;;16.10;81.60;;;;;;5026160;28;19926;-71
2023/09/15 08:03:39;;;;;;;;;;;16.30;81.40;;;;;;5026294;28;19933;-70
2023/09/15 08:06:14;;;;;;;;;;;16.40;80.80;;;;;;5023742;28;20013;-70
2023/09/15 08:08:48;;;;;;;;;;;16.60;81.00;;;;;;5026751;28;19925;-70
2023/09/15 08:11:34;;;;;;;;;;;16.80;79.90;;;;;;5024416;28;20012;-70
2023/09/15 08:14:07;;;;;;;;;;;17.00;79.60;;;;;;5026004;28;19932;-69
2023/09/15 08:16:40;;;;;;;;;;;17.10;79.40;;;;;;5025963;28;19960;-71
2023/09/15 08:19:13;;;;;;;;;;;17.20;79.00;;;;;;5024430;28;19933;-70
2023/09/15 08:21:47;;;;;;;;;;;17.30;78.80;;;;;;5026893;28;19926;-71
2023/09/15 08:24:28;;;;;;;;;;;17.50;78.00;;;;;;5025129;28;19932;-70
2023/09/15 08:27:01;;;;;;;;;;;17.60;77.80;;;;;;5024495;28;20361;-70
2023/09/15 08:29:34;;;;;;;;;;;17.80;77.40;;;;;;5026929;28;20265;-70
2023/09/15 08:32:08;;;;;;;;;;;18.00;77.30;;;;;;5026032;28;20295;-72
2023/09/15 08:34:41;;;;;;;;;;;18.00;77.20;;;;;;5026602;28;19948;-70
2023/09/15 08:37:15;;;;;;;;;;;18.10;76.60;;;;;;5024875;28;20351;-71
2023/09/15 08:39:49;;;;;;;;;;;18.10;77.20;;;;;;5025926;28;19929;-70
2023/09/15 08:42:24;;;;;;;;;;;18.20;76.80;;;;;;5022872;28;19983;-69
2023/09/15 08:44:58;;;;;;;;;;;18.50;75.70;;;;;;5024104;28;19933;-71
2023/09/15 08:47:34;;;;;;;;;;;18.40;76.10;;;;;;5024196;28;19925;-71
2023/09/15 08:50:01;;;;;;;;;;;18.60;74.80;;;;;;5026923;28;19933;-71
2023/09/15 08:52:35;;;;;;;;;;;18.80;75.10;;;;;;5024027;28;19936;-71
2023/09/15 08:55:03;;;;;;;;;;;18.80;75.00;;;;;;5024936;28;19988;-70
2023/09/15 08:57:39;;;;;;;;;;;18.90;75.00;;;;;;5025142;28;19925;-71
2023/09/15 09:00:08;;;;;;;;;;;18.90;74.70;;;;;;5023884;28;19933;-68
2023/09/15 09:02:42;;;;;;;;;;;19.10;74.40;;;;;;5023936;28;19929;-69
2023/09/15 09:05:15;;;;;;;;;;;19.20;73.90;;;;;;5026325;28;19933;-68
2023/09/15 09:07:51;;;;;;;;;;;19.20;74.20;;;;;;5026291;28;20374;-69
2023/09/15 09:10:26;;;;;;;;;;;19.50;73.30;;;;;;5024017;28;19975;-69
2023/09/15 09:12:59;;;;;;;;;;;19.60;73.20;;;;;;5025009;28;19936;-66
2023/09/15 09:15:33;;;;;;;;;;;19.80;72.40;;;;;;5022806;28;19925;-66
2023/09/15 09:18:14;;;;;;;;;;;19.90;72.30;;;;;;5024424;28;19929;-66
2023/09/15 09:20:49;;;;;;;;;;;20.10;71.30;;;;;;5025407;28;19944;-66
2023/09/15 09:23:22;;;;;;;;;;;20.20;71.10;;;;;;5026798;28;20029;-66
2023/09/15 09:25:58;;;;;;;;;;;20.20;71.20;;;;;;5023753;28;19925;-67
2023/09/15 09:28:33;;;;;;;;;;;20.30;71.50;;;;;;5024398;28;19925;-66
2023/09/15 09:31:06;;;;;;;;;;;20.40;71.30;;;;;;5022993;28;19929;-66
2023/09/15 09:33:39;;;;;;;;;;;20.40;70.90;;;;;;5023931;28;20373;-66
2023/09/15 09:36:13;;;;;;;;;;;20.60;70.60;;;;;;5024227;28;20016;-66
2023/09/15 09:38:47;;;;;;;;;;;20.60;70.80;;;;;;5024270;28;19933;-66
2023/09/15 09:41:24;;;;;;;;;;;20.80;70.70;;;;;;5022861;28;19932;-66
2023/09/15 09:43:57;;;;;;;;;;;20.80;70.60;;;;;;5023710;28;19929;-67
2023/09/15 09:46:30;;;;;;;;;;;20.90;70.30;;;;;;5023089;28;19940;-67
2023/09/15 09:49:03;;;;;;;;;;;21.00;70.10;;;;;;5024662;28;19930;-66
2023/09/15 09:51:36;;;;;;;;;;;21.10;69.80;;;;;;5028957;28;19996;-67
2023/09/15 09:54:09;;;;;;;;;;;21.20;69.50;;;;;;5028454;28;19925;-66
2023/09/15 09:56:49;;;;;;;;;;;21.30;69.40;;;;;;5025024;28;19979;-67
2023/09/15 09:59:23;;;;;;;;;;;21.30;68.90;;;;;;5023442;28;20013;-65
2023/09/15 10:01:56;;;;;;;;;;;21.40;68.30;;;;;;5024940;28;20300;-65
2023/09/15 10:04:29;;;;;;;;;;;21.50;68.20;;;;;;5023852;28;20530;-67
2023/09/15 10:07:03;;;;;;;;;;;21.60;67.70;;;;;;5026051;28;20395;-66
2023/09/15 10:09:36;;;;;;;;;;;21.70;66.90;;;;;;5023956;28;19929;-67
2023/09/15 10:12:12;;;;;;;;;;;21.70;66.40;;;;;;5023067;28;20277;-67
2023/09/15 10:14:45;;;;;;;;;;;21.80;65.90;;;;;;5024358;28;19936;-67
2023/09/15 10:17:19;;;;;;;;;;;22.00;65.60;;;;;;5021621;28;19929;-67
2023/09/15 10:19:53;;;;;;;;;;;22.00;65.80;;;;;;5022860;28;20024;-67
2023/09/15 10:22:26;;;;;;;;;;;22.10;65.20;;;;;;5021642;28;19925;-70
2023/09/15 10:25:00;;;;;;;;;;;22.10;65.00;;;;;;5023709;28;19943;-70
2023/09/15 10:27:34;;;;;;;;;;;22.10;64.60;;;;;;5022498;28;19925;-71
2023/09/15 10:30:08;;;;;;;;;;;22.20;63.70;;;;;;5025142;28;19991;-71
2023/09/15 10:32:43;;;;;;;;;;;22.30;63.80;;;;;;5023037;28;19933;-71
2023/09/15 10:35:16;;;;;;;;;;;22.30;63.90;;;;;;5022922;28;19983;-70
2023/09/15 10:37:51;;;;;;;;;;;22.30;63.50;;;;;;5022828;28;19925;-69
2023/09/15 10:40:24;;;;;;;;;;;22.40;63.30;;;;;;5022034;28;20384;-71
2023/09/15 10:43:07;;;;;;;;;;;22.40;63.20;;;;;;5022420;28;19984;-69
2023/09/15 10:45:40;;;;;;;;;;;22.50;63.20;;;;;;5022900;28;19928;-69
2023/09/15 10:48:13;;;;;;;;;;;22.60;63.40;;;;;;5021874;28;19958;-69
2023/09/15 10:50:46;;;;;;;;;;;22.60;63.50;;;;;;5022830;28;20339;-70
2023/09/15 10:53:21;;;;;;;;;;;22.60;63.20;;;;;;5021565;28;19929;-69
2023/09/15 10:55:55;;;;;;;;;;;22.70;62.90;;;;;;5023558;28;19964;-69
2023/09/15 10:58:31;;;;;;;;;;;22.70;62.60;;;;;;5027197;28;19929;-69
2023/09/15 11:01:05;;;;;;;;;;;22.70;61.80;;;;;;5022287;28;19960;-69
2023/09/15 11:03:38;;;;;;;;;;;22.80;61.80;;;;;;5016134;28;20262;-71
2023/09/15 11:06:13;;;;;;;;;;;22.80;62.30;;;;;;5022827;28;19987;-70
2023/09/15 11:08:46;;;;;;;;;;;22.80;61.50;;;;;;5023295;28;19930;-70
2023/09/15 11:11:19;;;;;;;;;;;22.90;61.50;;;;;;5022089;28;19929;-70
2023/09/15 11:13:54;;;;;;;;;;;22.90;61.30;;;;;;5023929;28;19929;-69
2023/09/15 11:16:28;;;;;;;;;;;22.90;60.50;;;;;;5024994;28;19925;-70
2023/09/15 11:19:02;;;;;;;;;;;23.00;60.00;;;;;;5023957;28;19968;-70
2023/09/15 11:21:36;;;;;;;;;;;23.00;59.80;;;;;;5021908;28;20016;-68
2023/09/15 11:26:53;;;;;;;;;;;23.00;59.90;;;;;;5014915;28;19947;-70
2023/09/15 11:29:29;;;;;;;;;;;23.00;58.70;;;;;;5028730;28;19979;-70
2023/09/15 11:32:03;;;;;;;;;;;23.00;59.30;;;;;;5028135;28;19926;-73
2023/09/15 11:34:36;;;;;;;;;;;23.00;58.70;;;;;;5026338;28;20008;-74
2023/09/15 11:37:09;;;;;;;;;;;23.00;58.40;;;;;;5025965;28;19925;-72
2023/09/15 11:39:49;;;;;;;;;;;23.00;58.20;;;;;;5029858;28;19964;-74
2023/09/15 11:42:22;;;;;;;;;;;23.00;58.70;;;;;;5027437;28;19975;-74
2023/09/15 11:44:56;;;;;;;;;;;23.00;57.80;;;;;;5031422;28;19933;-74
2023/09/15 11:47:23;;;;;;;;;;;23.00;57.80;;;;;;5029596;28;19979;-72
2023/09/15 11:49:58;;;;;;;;;;;23.00;58.30;;;;;;5030176;28;19929;-73
2023/09/15 11:52:32;;;;;;;;;;;23.00;59.00;;;;;;5030306;28;20446;-73
2023/09/15 11:55:05;;;;;;;;;;;23.10;58.10;;;;;;5028167;28;19929;-71
2023/09/15 11:57:38;;;;;;;;;;;23.10;57.10;;;;;;5028851;28;19971;-73
2023/09/15 12:00:13;;;;;;;;;;;23.10;57.30;;;;;;5027619;28;19929;-73
2023/09/15 12:02:48;;;;;;;;;;;23.10;58.30;;;;;;5030989;28;19932;-73
2023/09/15 12:05:22;;;;;;;;;;;23.00;58.20;;;;;;5027996;28;19929;-73
2023/09/15 12:07:56;;;;;;;;;;;23.00;58.60;;;;;;5028468;28;19933;-73
2023/09/15 12:10:30;;;;;;;;;;;23.00;58.50;;;;;;5028440;28;20016;-73
2023/09/15 12:13:03;;;;;;;;;;;23.10;57.60;;;;;;5030371;28;19949;-72
2023/09/15 12:15:39;;;;;;;;;;;23.00;58.50;;;;;;5026865;28;19967;-73
2023/09/15 12:18:13;;;;;;;;;;;23.00;58.70;;;;;;5027911;28;19975;-73
2023/09/15 12:20:47;;;;;;;;;;;23.00;58.90;;;;;;5028487;28;19925;-74
2023/09/15 12:23:15;;;;;;;;;;;23.10;59.20;;;;;;5027458;28;19929;-75
2023/09/15 12:25:48;;;;;;;;;;;23.00;57.60;;;;;;5031735;28;19925;-73
2023/09/15 12:28:22;;;;;;;;;;;23.00;58.90;;;;;;5032534;28;20392;-74
2023/09/15 12:30:58;;;;;;;;;;;23.00;59.10;;;;;;5032221;28;19976;-74
2023/09/15 12:33:32;;;;;;;;;;;23.10;59.30;;;;;;5028222;28;19925;-73
2023/09/15 12:36:05;;;;;;;;;;;23.00;59.40;;;;;;5028803;28;19933;-73
2023/09/15 12:38:38;;;;;;;;;;;23.00;59.00;;;;;;5019198;28;19929;-74
2023/09/15 12:41:11;;;;;;;;;;;23.00;58.60;;;;;;5023879;28;20012;-73
2023/09/15 12:43:44;;;;;;;;;;;23.00;58.70;;;;;;5027025;28;19979;-72
2023/09/15 12:46:18;;;;;;;;;;;23.00;58.90;;;;;;5025182;28;19929;-71
2023/09/15 12:48:52;;;;;;;;;;;22.90;59.50;;;;;;5026297;28;19925;-71
2023/09/15 12:51:25;;;;;;;;;;;23.00;59.10;;;;;;5025526;28;19933;-71
2023/09/15 12:53:58;;;;;;;;;;;22.90;60.10;;;;;;5024835;28;19940;-71
2023/09/15 12:56:31;;;;;;;;;;;22.90;59.20;;;;;;5025152;28;19936;-72
2023/09/15 12:59:04;;;;;;;;;;;22.90;59.50;;;;;;5024460;28;20394;-71
2023/09/15 13:01:39;;;;;;;;;;;22.90;59.90;;;;;;5024144;28;19929;-71
2023/09/15 13:04:12;;;;;;;;;;;22.80;59.50;;;;;;5023038;28;19925;-70
2023/09/15 13:06:45;;;;;;;;;;;22.80;59.00;;;;;;5024813;28;19925;-71
2023/09/15 13:09:18;;;;;;;;;;;22.80;59.50;;;;;;5024100;28;20351;-72
2023/09/15 13:11:51;;;;;;;;;;;22.70;58.60;;;;;;5025490;28;19925;-72
2023/09/15 13:14:18;;;;;;;;;;;22.70;59.10;;;;;;5024893;28;20376;-71
2023/09/15 13:16:52;;;;;;;;;;;22.70;57.90;;;;;;5024494;28;19932;-71
2023/09/15 13:19:27;;;;;;;;;;;22.80;57.40;;;;;;5024462;28;20038;-70
2023/09/15 13:22:03;;;;;;;;;;;22.80;58.30;;;;;;5024976;28;20015;-72
2023/09/15 13:24:36;;;;;;;;;;;22.80;58.70;;;;;;5024116;28;20380;-71
2023/09/15 13:27:09;;;;;;;;;;;22.70;57.30;;;;;;5024186;28;20312;-73
2023/09/15 13:29:42;;;;;;;;;;;22.70;59.10;;;;;;5025380;28;19940;-72
2023/09/15 13:32:17;;;;;;;;;;;22.70;58.50;;;;;;5023132;28;20028;-70
2023/09/15 13:34:51;;;;;;;;;;;22.60;57.30;;;;;;5023806;28;19925;-72
2023/09/15 13:37:24;;;;;;;;;;;22.60;59.00;;;;;;5025481;28;20430;-71
2023/09/15 13:39:57;;;;;;;;;;;22.60;58.00;;;;;;5024876;28;19925;-71
2023/09/15 13:42:31;;;;;;;;;;;22.60;57.80;;;;;;5023209;28;20028;-71
2023/09/15 13:45:05;;;;;;;;;;;22.60;59.10;;;;;;5021540;28;19925;-71
2023/09/15 13:47:39;;;;;;;;;;;22.50;58.50;;;;;;5025731;28;20022;-71
2023/09/15 13:50:20;;;;;;;;;;;22.50;59.10;;;;;;5022497;28;19925;-72
2023/09/15 13:52:53;;;;;;;;;;;22.50;59.20;;;;;;5023489;28;19929;-71
2023/09/15 13:55:27;;;;;;;;;;;22.50;58.80;;;;;;5023155;28;19944;-69
2023/09/15 13:58:00;;;;;;;;;;;22.50;58.30;;;;;;5025126;28;19929;-71
2023/09/15 14:00:35;;;;;;;;;;;22.40;60.30;;;;;;5022814;28;19925;-72
2023/09/15 14:03:10;;;;;;;;;;;22.40;59.20;;;;;;5023422;28;19932;-70
2023/09/15 14:05:43;;;;;;;;;;;22.40;58.00;;;;;;5025329;28;19932;-70
2023/09/15 14:08:16;;;;;;;;;;;22.40;58.40;;;;;;5022948;28;20414;-69
2023/09/15 14:10:49;;;;;;;;;;;22.30;59.50;;;;;;5024382;28;19929;-70
2023/09/15 14:13:29;;;;;;;;;;;22.30;58.50;;;;;;5023472;28;20599;-70
2023/09/15 14:16:03;;;;;;;;;;;22.30;58.30;;;;;;5024197;28;19960;-70
2023/09/15 14:18:37;;;;;;;;;;;22.30;58.60;;;;;;5006321;28;19956;-70
2023/09/15 14:21:04;;;;;;;;;;;22.30;58.20;;;;;;5023665;28;19929;-72
2023/09/15 14:23:37;;;;;;;;;;;22.30;59.30;;;;;;5023470;28;20299;-72
2023/09/15 14:26:10;;;;;;;;;;;22.40;57.70;;;;;;5023704;28;20307;-69
2023/09/15 14:28:43;;;;;;;;;;;22.40;58.20;;;;;;5025068;28;19975;-71
2023/09/15 14:31:16;;;;;;;;;;;22.30;56.80;;;;;;5024176;28;19933;-72
2023/09/15 14:33:50;;;;;;;;;;;22.30;56.90;;;;;;5020445;28;19940;-71
2023/09/15 14:36:17;;;;;;;;;;;22.20;58.10;;;;;;5023340;28;20381;-71
2023/09/15 14:38:51;;;;;;;;;;;22.20;57.70;;;;;;5024358;28;20138;-70
2023/09/15 14:41:24;;;;;;;;;;;22.20;59.00;;;;;;5021810;28;20004;-71
2023/09/15 14:43:57;;;;;;;;;;;22.20;57.60;;;;;;5023745;28;20392;-71
2023/09/15 14:46:30;;;;;;;;;;;22.10;58.10;;;;;;5023718;28;20400;-70
2023/09/15 14:49:04;;;;;;;;;;;22.10;57.90;;;;;;5022280;28;19960;-70
2023/09/15 14:51:39;;;;;;;;;;;22.20;58.30;;;;;;5021986;28;19929;-72
2023/09/15 14:54:14;;;;;;;;;;;22.20;58.60;;;;;;5024984;28;19929;-70
2023/09/15 14:56:54;;;;;;;;;;;22.20;59.00;;;;;;5023610;28;19925;-70